createdAt,value
2019-02-25T00:02:25.638Z,65.52
2019-02-25T00:07:20.230Z,65.96
2019-02-25T00:12:15.780Z,65.49
2019-02-25T00:17:10.365Z,65.92
2019-02-25T00:22:05.077Z,65.61
2019-02-25T00:26:59.682Z,66.74
2019-02-25T00:31:54.263Z,65.86
2019-02-25T00:36:48.854Z,64.89
2019-02-25T00:41:43.441Z,66.54
2019-02-25T00:46:38.012Z,66.55
2019-02-25T00:51:32.598Z,66.80
2019-02-25T00:56:27.177Z,67.25
2019-02-25T01:01:21.761Z,67.11
2019-02-25T01:06:16.445Z,67.50
2019-02-25T01:11:11.088Z,67.76
2019-02-25T01:16:05.681Z,67.75
2019-02-25T01:21:00.269Z,67.37
2019-02-25T01:25:54.868Z,67.32
2019-02-25T01:30:49.453Z,67.21
2019-02-25T01:35:44.045Z,66.82
2019-02-25T01:40:38.624Z,67.66
2019-02-25T01:45:33.206Z,67.57
2019-02-25T01:50:27.785Z,67.86
2019-02-25T01:55:22.349Z,66.71
2019-02-25T02:00:18.946Z,65.81
2019-02-25T02:05:14.057Z,66.82
2019-02-25T02:10:13.048Z,65.86
2019-02-25T02:15:12.510Z,66.00
2019-02-25T02:20:11.512Z,64.96
2019-02-25T02:25:08.090Z,65.52
2019-02-25T02:30:02.692Z,66.07
2019-02-25T02:34:57.256Z,64.30
2019-02-25T02:39:51.818Z,64.10
2019-02-25T02:44:50.391Z,64.16
2019-02-25T02:49:45.035Z,64.22
2019-02-25T02:54:39.629Z,65.07
2019-02-25T02:59:34.211Z,64.31
2019-02-25T03:04:28.787Z,63.75
2019-02-25T03:09:23.384Z,64.13
2019-02-25T03:14:17.965Z,64.04
2019-02-25T03:19:12.549Z,65.20
2019-02-25T03:24:07.125Z,65.06
2019-02-25T03:29:01.707Z,64.60
2019-02-25T03:33:56.294Z,66.44
2019-02-25T03:38:50.868Z,66.58
2019-02-25T03:43:45.451Z,66.69
2019-02-25T03:48:40.049Z,67.26
2019-02-25T03:53:34.617Z,67.21
2019-02-25T03:58:29.215Z,68.62
2019-02-25T04:03:23.843Z,69.35
2019-02-25T04:08:18.573Z,69.90
2019-02-25T04:13:13.224Z,69.84
2019-02-25T04:18:07.821Z,68.36
2019-02-25T04:23:02.413Z,68.08
2019-02-25T04:27:57.006Z,67.93
2019-02-25T04:32:51.594Z,69.55
2019-02-25T04:37:46.189Z,69.49
2019-02-25T04:42:40.758Z,68.98
2019-02-25T04:47:35.420Z,68.45
2019-02-25T04:52:30.009Z,68.01
2019-02-25T04:57:24.609Z,68.39
2019-02-25T05:02:19.176Z,69.49
2019-02-25T05:07:13.863Z,69.76
2019-02-25T05:12:08.457Z,69.87
2019-02-25T05:17:03.024Z,71.60
2019-02-25T05:21:57.619Z,70.79
2019-02-25T05:26:52.196Z,70.90
2019-02-25T05:31:46.812Z,70.71
2019-02-25T05:36:41.380Z,70.64
2019-02-25T05:41:35.963Z,70.23
2019-02-25T05:46:30.533Z,70.23
2019-02-25T05:51:25.139Z,71.13
2019-02-25T05:56:19.715Z,71.40
2019-02-25T06:01:14.301Z,71.18
2019-02-25T06:06:08.882Z,71.53
2019-02-25T06:11:03.468Z,71.97
2019-02-25T06:15:58.113Z,72.53
2019-02-25T06:20:52.710Z,72.14
2019-02-25T06:25:47.274Z,72.03
2019-02-25T06:30:41.843Z,71.69
2019-02-25T06:35:36.469Z,70.27
2019-02-25T06:40:31.061Z,68.22
2019-02-25T06:45:38.986Z,65.71
2019-02-25T06:50:36.342Z,64.06
2019-02-25T06:55:31.480Z,63.42
2019-02-25T07:00:26.111Z,64.03
2019-02-25T07:05:23.283Z,64.41
2019-02-25T07:10:21.929Z,64.59
2019-02-25T07:15:20.680Z,66.49
2019-02-25T07:20:19.619Z,64.72
2019-02-25T07:25:29.104Z,64.73
2019-02-25T07:30:25.319Z,65.39
2019-02-25T07:35:27.639Z,64.43
2019-02-25T07:40:30.072Z,63.27
2019-02-25T07:45:26.304Z,62.75
2019-02-25T07:50:22.598Z,62.57
2019-02-25T07:55:28.979Z,61.05
2019-02-25T08:00:28.127Z,59.84
2019-02-25T08:05:30.253Z,58.94
2019-02-25T08:10:35.171Z,58.64
2019-02-25T08:15:34.038Z,58.12
2019-02-25T08:20:32.330Z,57.51
2019-02-25T08:25:54.027Z,56.75
2019-02-25T08:30:55.208Z,54.95
2019-02-25T08:36:03.024Z,54.83
2019-02-25T08:41:04.491Z,54.62
2019-02-25T08:46:03.564Z,53.71
2019-02-25T08:50:58.752Z,53.79
2019-02-25T08:55:53.415Z,54.17
2019-02-25T09:00:48.254Z,53.97
2019-02-25T09:05:42.874Z,53.26
2019-02-25T09:10:37.448Z,51.96
2019-02-25T09:15:32.567Z,51.61
2019-02-25T09:20:27.180Z,51.70
2019-02-25T09:25:21.837Z,51.55
2019-02-25T09:30:18.993Z,51.66
2019-02-25T09:35:33.569Z,52.09
2019-02-25T09:40:43.052Z,52.26
2019-02-25T09:45:37.630Z,52.81
2019-02-25T09:50:32.296Z,52.98
2019-02-25T09:55:26.923Z,53.57
2019-02-25T10:00:23.632Z,53.26
2019-02-25T10:05:18.780Z,53.63
2019-02-25T10:10:17.403Z,53.53
2019-02-25T10:15:24.002Z,53.27
2019-02-25T10:20:27.293Z,52.73
2019-02-25T10:25:23.281Z,52.14
2019-02-25T10:30:20.663Z,52.09
2019-02-25T10:35:25.003Z,52.18
2019-02-25T10:40:24.047Z,51.79
2019-02-25T10:45:25.105Z,51.39
2019-02-25T10:50:19.898Z,51.11
2019-02-25T10:55:31.185Z,51.47
2019-02-25T11:00:26.402Z,51.19
2019-02-25T11:05:23.104Z,50.83
2019-02-25T11:10:36.186Z,50.83
2019-02-25T11:15:32.697Z,51.09
2019-02-25T11:20:29.141Z,50.67
2019-02-25T11:25:25.755Z,50.20
2019-02-25T11:30:21.258Z,49.81
2019-02-25T11:35:17.179Z,49.62
2019-02-25T11:40:17.228Z,48.33
2019-02-25T11:45:17.483Z,47.96
2019-02-25T11:50:15.250Z,47.74
2019-02-25T11:55:17.880Z,47.33
2019-02-25T12:00:26.041Z,47.08
2019-02-25T12:05:21.098Z,46.77
2019-02-25T12:10:18.486Z,46.21
2019-02-25T12:15:18.850Z,45.39
2019-02-25T12:20:15.215Z,45.47
2019-02-25T12:25:13.787Z,45.97
2019-02-25T12:30:28.758Z,45.08
2019-02-25T12:35:24.435Z,44.69
2019-02-25T12:40:20.719Z,44.54
2019-02-25T12:45:16.643Z,44.76
2019-02-25T12:50:16.628Z,44.52
2019-02-25T12:55:14.412Z,44.78
2019-02-25T13:00:24.066Z,44.79
2019-02-25T13:05:26.839Z,44.69
2019-02-25T13:10:21.422Z,44.23
2019-02-25T13:15:24.323Z,43.87
2019-02-25T13:20:19.319Z,44.15
2019-02-25T13:25:32.207Z,44.25
2019-02-25T13:30:27.277Z,43.77
2019-02-25T13:35:22.015Z,43.69
2019-02-25T13:40:18.810Z,43.51
2019-02-25T13:45:17.783Z,43.29
2019-02-25T13:50:17.589Z,43.14
2019-02-25T13:55:18.979Z,42.97
2019-02-25T14:00:24.167Z,43.04
2019-02-25T14:05:19.604Z,43.01
2019-02-25T14:10:18.083Z,42.60
2019-02-25T14:15:16.748Z,42.83
2019-02-25T14:20:20.484Z,42.89
2019-02-25T14:25:31.070Z,42.68
2019-02-25T14:30:27.983Z,42.75
2019-02-25T14:35:29.211Z,42.92
2019-02-25T14:40:26.217Z,42.23
2019-02-25T14:45:21.836Z,42.12
2019-02-25T14:50:22.340Z,42.23
2019-02-25T14:55:17.203Z,42.55
2019-02-25T15:00:28.405Z,43.18
2019-02-25T15:05:24.567Z,43.26
2019-02-25T15:10:19.245Z,43.75
2019-02-25T15:15:24.509Z,43.19
2019-02-25T15:20:21.465Z,43.66
2019-02-25T15:25:19.319Z,43.71
2019-02-25T15:30:31.506Z,43.92
2019-02-25T15:35:28.791Z,44.26
2019-02-25T15:40:23.245Z,44.67
2019-02-25T15:45:26.808Z,45.52
2019-02-25T15:50:21.506Z,45.53
2019-02-25T15:55:19.533Z,45.92
2019-02-25T16:00:21.251Z,46.12
2019-02-25T16:05:15.853Z,46.26
2019-02-25T16:10:16.274Z,46.59
2019-02-25T16:15:19.192Z,47.09
2019-02-25T16:20:21.864Z,47.14
2019-02-25T16:25:27.178Z,47.87
2019-02-25T16:30:23.583Z,48.48
2019-02-25T16:35:20.933Z,49.02
2019-02-25T16:40:24.404Z,49.34
2019-02-25T16:45:34.279Z,50.17
2019-02-25T16:50:24.558Z,50.89
2019-02-25T16:55:27.773Z,51.61
2019-02-25T17:00:29.876Z,52.08
2019-02-25T17:05:24.915Z,52.28
2019-02-25T17:10:25.974Z,52.63
2019-02-25T17:15:21.400Z,53.15
2019-02-25T17:20:18.703Z,53.90
2019-02-25T17:25:15.964Z,54.24
2019-02-25T17:30:22.431Z,54.94
2019-02-25T17:35:21.439Z,55.22
2019-02-25T17:40:18.567Z,55.14
2019-02-25T17:45:27.708Z,54.59
2019-02-25T17:50:24.109Z,54.27
2019-02-25T17:55:29.278Z,55.51
2019-02-25T18:00:33.882Z,56.67
2019-02-25T18:05:28.304Z,57.65
2019-02-25T18:10:23.493Z,57.83
2019-02-25T18:15:27.964Z,58.41
2019-02-25T18:20:23.322Z,59.49
2019-02-25T18:25:20.435Z,60.64
2019-02-25T18:30:26.347Z,61.07
2019-02-25T18:35:22.817Z,61.48
2019-02-25T18:40:20.605Z,62.51
2019-02-25T18:45:20.791Z,63.46
2019-02-25T18:50:24.143Z,64.18
2019-02-25T18:55:24.831Z,65.00
2019-02-25T19:00:41.911Z,64.48
2019-02-25T19:05:36.247Z,64.91
2019-02-25T19:10:30.845Z,65.99
2019-02-25T19:15:25.745Z,66.58
2019-02-25T19:20:20.486Z,66.58
2019-02-25T19:25:18.241Z,66.71
2019-02-25T19:30:19.747Z,67.08
2019-02-25T19:35:16.808Z,67.33
2019-02-25T19:40:19.579Z,66.61
2019-02-25T19:45:16.696Z,65.77
2019-02-25T19:50:18.235Z,62.19
2019-02-25T19:55:15.273Z,60.55
2019-02-25T20:00:22.023Z,60.16
2019-02-25T20:05:16.526Z,59.63
2019-02-25T20:10:13.780Z,59.71
2019-02-25T20:15:18.189Z,60.14
2019-02-25T20:20:15.052Z,60.23
2019-02-25T20:25:16.710Z,60.32
2019-02-25T20:30:23.514Z,60.66
2019-02-25T20:35:21.756Z,61.10
2019-02-25T20:40:19.149Z,61.27
2019-02-25T20:45:23.631Z,61.68
2019-02-25T20:50:21.940Z,62.48
2019-02-25T20:55:16.592Z,63.14
2019-02-25T21:00:19.890Z,64.06
2019-02-25T21:05:16.753Z,64.96
2019-02-25T21:10:16.858Z,65.54
2019-02-25T21:15:14.759Z,66.87
2019-02-25T21:20:16.033Z,67.99
2019-02-25T21:25:13.805Z,69.37
2019-02-25T21:30:13.207Z,69.69
2019-02-25T21:35:14.009Z,70.31
2019-02-25T21:40:13.251Z,70.61
2019-02-25T21:45:17.954Z,69.62
2019-02-25T21:50:17.199Z,69.90
2019-02-25T21:55:14.200Z,70.30
2019-02-25T22:00:21.581Z,69.80
2019-02-25T22:05:16.693Z,70.69
2019-02-25T22:10:18.741Z,70.64
2019-02-25T22:15:20.350Z,70.96
2019-02-25T22:20:17.086Z,72.24
2019-02-25T22:25:23.758Z,73.00
2019-02-25T22:30:19.734Z,74.19
2019-02-25T22:35:15.216Z,75.08
2019-02-25T22:40:17.950Z,75.89
2019-02-25T22:45:24.132Z,76.28
2019-02-25T22:50:18.866Z,76.72
2019-02-25T22:55:15.931Z,76.90
2019-02-25T23:00:33.787Z,77.13
2019-02-25T23:05:28.809Z,77.11
2019-02-25T23:10:24.228Z,77.02
2019-02-25T23:15:20.534Z,77.65
2019-02-25T23:20:15.480Z,77.69
2019-02-25T23:25:12.344Z,77.64
2019-02-25T23:30:13.865Z,77.92
2019-02-25T23:35:11.488Z,78.81
2019-02-25T23:40:16.805Z,78.52
2019-02-25T23:45:17.850Z,78.18
2019-02-25T23:50:17.806Z,78.89
2019-02-25T23:55:16.498Z,79.18
